Antlers, Colorado
Current Conditions -  °F | °C
As of 4:53 AM on Thursday 18 Dec 2014 (Local Time) from KEEO Reporting Station
Haze Haze  
Wind Chill: 25°   Ceiling: 1400
Heat Index: 25°   Visibility: 5mi
Dew Point: 23°   Wind: 0mph
Humidity: 92%   Direction: NA
Pressure: 30.07"   Gusts: NA
Location:  39.7934°N, 108.135°W
Report Text: KEEO 181153Z AUTO 00000KT 5SM BR OVC014 M04/M05 A3007 RMK AO2 SNB17E53 SLP204 P0000 60000 70004 I6001 T10391050 11028 21039 56000
Loading
Personal Weather Stations






























Interactive Weather Map New forecast layout! Learn more

10-Day Weather Forecast

Advertisements
Track Severe Weather on mobile